createdAt,value
2019-02-20T00:02:11.441Z,7.60
2019-02-20T00:04:40.638Z,7.60
2019-02-20T00:07:09.899Z,7.50
2019-02-20T00:09:39.034Z,7.50
2019-02-20T00:12:08.229Z,7.50
2019-02-20T00:14:37.371Z,7.50
2019-02-20T00:17:06.812Z,7.40
2019-02-20T00:19:36.049Z,7.40
2019-02-20T00:22:05.189Z,7.40
2019-02-20T00:24:34.322Z,7.40
2019-02-20T00:27:03.562Z,7.40
2019-02-20T00:29:32.784Z,7.40
2019-02-20T00:32:01.976Z,7.40
2019-02-20T00:34:31.173Z,7.40
2019-02-20T00:37:00.323Z,7.40
2019-02-20T00:39:29.505Z,7.30
2019-02-20T00:41:58.662Z,7.30
2019-02-20T00:44:39.818Z,7.30
2019-02-20T00:47:33.791Z,7.30
2019-02-20T00:50:03.129Z,7.30
2019-02-20T00:52:36.842Z,7.20
2019-02-20T00:55:06.758Z,7.20
2019-02-20T00:57:35.901Z,7.20
2019-02-20T01:00:06.206Z,7.20
2019-02-20T01:02:35.450Z,7.10
2019-02-20T01:05:04.889Z,7.10
2019-02-20T01:07:34.058Z,7.10
2019-02-20T01:10:03.270Z,7.10
2019-02-20T01:12:32.410Z,7.10
2019-02-20T01:15:01.625Z,7.00
2019-02-20T01:17:30.766Z,7.10
2019-02-20T01:19:59.925Z,7.00
2019-02-20T01:22:29.173Z,7.10
2019-02-20T01:24:58.418Z,7.00
2019-02-20T01:27:27.577Z,7.00
2019-02-20T01:29:56.818Z,7.00
2019-02-20T01:32:25.973Z,7.00
2019-02-20T01:34:55.143Z,7.00
2019-02-20T01:37:24.371Z,7.00
2019-02-20T01:39:53.558Z,7.00
2019-02-20T01:42:22.745Z,7.00
2019-02-20T01:44:51.929Z,7.00
2019-02-20T01:47:21.081Z,6.90
2019-02-20T01:49:50.240Z,7.00
2019-02-20T01:52:19.406Z,6.90
2019-02-20T01:54:48.549Z,6.80
2019-02-20T01:57:17.694Z,6.80
2019-02-20T01:59:46.859Z,6.80
2019-02-20T02:02:16.019Z,6.80
2019-02-20T02:04:45.218Z,6.90
2019-02-20T02:07:14.361Z,6.90
2019-02-20T02:09:43.505Z,6.90
2019-02-20T02:12:12.703Z,6.90
2019-02-20T02:14:42.078Z,6.80
2019-02-20T02:17:11.300Z,6.90
2019-02-20T02:19:40.469Z,6.90
2019-02-20T02:22:09.618Z,6.80
2019-02-20T02:24:38.758Z,6.80
2019-02-20T02:27:08.267Z,6.80
2019-02-20T02:29:37.414Z,6.80
2019-02-20T02:32:06.640Z,6.70
2019-02-20T02:34:35.782Z,6.70
2019-02-20T02:37:05.020Z,6.80
2019-02-20T02:39:34.250Z,6.70
2019-02-20T02:42:03.503Z,6.70
2019-02-20T02:44:32.752Z,6.80
2019-02-20T02:47:02.062Z,6.70
2019-02-20T02:49:31.218Z,6.80
2019-02-20T02:52:00.446Z,6.80
2019-02-20T02:54:29.703Z,6.70
2019-02-20T02:56:58.906Z,6.80
2019-02-20T02:59:28.182Z,6.80
2019-02-20T03:01:57.370Z,6.70
2019-02-20T03:04:26.530Z,6.80
2019-02-20T03:06:55.682Z,6.80
2019-02-20T03:09:24.834Z,6.80
2019-02-20T03:11:54.169Z,6.80
2019-02-20T03:14:23.956Z,6.90
2019-02-20T03:16:53.234Z,6.90
2019-02-20T03:19:22.431Z,6.90
2019-02-20T03:21:51.633Z,6.90
2019-02-20T03:24:20.835Z,6.90
2019-02-20T03:26:50.043Z,6.90
2019-02-20T03:29:19.188Z,6.90
2019-02-20T03:31:48.447Z,6.80
2019-02-20T03:34:17.571Z,6.80
2019-02-20T03:36:46.714Z,6.80
2019-02-20T03:39:15.901Z,6.80
2019-02-20T03:41:45.071Z,6.80
2019-02-20T03:44:14.197Z,6.80
2019-02-20T03:46:43.411Z,6.80
2019-02-20T03:49:12.610Z,6.90
2019-02-20T03:51:41.835Z,6.90
2019-02-20T03:54:10.998Z,7.00
2019-02-20T03:56:40.305Z,7.00
2019-02-20T03:59:09.898Z,7.00
2019-02-20T04:01:39.082Z,6.90
2019-02-20T04:04:08.282Z,6.90
2019-02-20T04:06:37.410Z,6.90
2019-02-20T04:09:07.202Z,6.90
2019-02-20T04:11:36.334Z,7.00
2019-02-20T04:14:05.509Z,6.90
2019-02-20T04:16:34.741Z,6.90
2019-02-20T04:19:03.891Z,7.00
2019-02-20T04:21:33.093Z,6.90
2019-02-20T04:24:03.046Z,7.00
2019-02-20T04:26:32.488Z,7.00
2019-02-20T04:29:01.634Z,7.00
2019-02-20T04:31:30.901Z,6.90
2019-02-20T04:34:00.049Z,7.00
2019-02-20T04:36:29.326Z,7.00
2019-02-20T04:38:58.608Z,7.00
2019-02-20T04:41:27.887Z,6.90
2019-02-20T04:43:57.114Z,6.90
2019-02-20T04:46:26.441Z,7.00
2019-02-20T04:48:55.697Z,7.00
2019-02-20T04:51:24.939Z,7.00
2019-02-20T04:53:54.256Z,7.00
2019-02-20T04:56:23.469Z,7.00
2019-02-20T04:58:57.847Z,6.90
2019-02-20T05:01:27.038Z,7.00
2019-02-20T05:03:56.162Z,7.00
2019-02-20T05:06:25.394Z,7.00
2019-02-20T05:08:54.527Z,7.00
2019-02-20T05:11:23.675Z,7.00
2019-02-20T05:13:52.867Z,6.90
2019-02-20T05:16:22.118Z,6.90
2019-02-20T05:18:51.267Z,6.90
2019-02-20T05:21:20.484Z,6.90
2019-02-20T05:23:49.655Z,6.90
2019-02-20T05:26:18.867Z,6.80
2019-02-20T05:28:48.183Z,6.80
2019-02-20T05:31:17.414Z,6.90
2019-02-20T05:33:46.554Z,6.90
2019-02-20T05:36:15.712Z,6.80
2019-02-20T05:38:44.988Z,6.90
2019-02-20T05:41:14.204Z,6.90
2019-02-20T05:43:43.339Z,7.00
2019-02-20T05:46:12.588Z,7.00
2019-02-20T05:48:41.935Z,7.00
2019-02-20T05:51:11.068Z,7.00
2019-02-20T05:53:40.296Z,7.00
2019-02-20T05:56:21.403Z,7.00
2019-02-20T05:58:50.634Z,7.00
2019-02-20T06:01:19.843Z,7.00
2019-02-20T06:03:49.046Z,7.00
2019-02-20T06:06:18.179Z,7.00
2019-02-20T06:08:47.293Z,7.00
2019-02-20T06:11:16.552Z,7.00
2019-02-20T06:13:45.657Z,7.00
2019-02-20T06:16:14.801Z,7.00
2019-02-20T06:18:43.926Z,7.10
2019-02-20T06:21:13.029Z,7.10
2019-02-20T06:23:43.029Z,7.20
2019-02-20T06:26:12.213Z,7.10
2019-02-20T06:28:41.338Z,7.10
2019-02-20T06:31:10.498Z,7.10
2019-02-20T06:33:39.638Z,7.10
2019-02-20T06:36:08.765Z,7.10
2019-02-20T06:38:37.886Z,7.20
2019-02-20T06:41:07.010Z,7.20
2019-02-20T06:43:36.237Z,7.30
2019-02-20T06:46:05.412Z,7.30
2019-02-20T06:48:34.645Z,7.30
2019-02-20T06:51:03.787Z,7.30
2019-02-20T06:53:32.972Z,7.30
2019-02-20T06:56:02.113Z,7.30
2019-02-20T06:58:31.216Z,7.20
2019-02-20T07:01:00.324Z,7.20
2019-02-20T07:03:29.543Z,7.20
2019-02-20T07:06:35.650Z,7.20
2019-02-20T07:09:45.209Z,7.20
2019-02-20T07:12:35.846Z,7.20
2019-02-20T07:15:44.914Z,7.20
2019-02-20T07:18:40.875Z,7.30
2019-02-20T07:21:49.924Z,7.30
2019-02-20T07:24:53.126Z,7.40
2019-02-20T07:28:03.246Z,7.40
2019-02-20T07:30:32.623Z,7.40
2019-02-20T07:33:01.741Z,7.40
2019-02-20T07:35:30.877Z,7.50
2019-02-20T07:38:00.000Z,7.50
2019-02-20T07:40:29.143Z,7.60
2019-02-20T07:42:58.246Z,7.60
2019-02-20T07:45:27.423Z,7.70
2019-02-20T07:47:56.554Z,7.70
2019-02-20T07:50:25.754Z,7.70
2019-02-20T07:52:54.907Z,7.80
2019-02-20T07:55:24.105Z,7.90
2019-02-20T07:57:53.334Z,8.00
2019-02-20T08:00:22.461Z,8.00
2019-02-20T08:02:51.617Z,8.00
2019-02-20T08:05:20.723Z,7.90
2019-02-20T08:07:49.886Z,8.00
2019-02-20T08:10:18.998Z,8.10
2019-02-20T08:12:48.109Z,8.10
2019-02-20T08:15:17.259Z,8.10
2019-02-20T08:17:46.489Z,8.10
2019-02-20T08:20:15.653Z,8.10
2019-02-20T08:22:44.789Z,8.10
2019-02-20T08:25:22.542Z,8.10
2019-02-20T08:27:44.824Z,8.10
2019-02-20T08:30:15.609Z,8.20
2019-02-20T08:32:44.810Z,8.30
2019-02-20T08:35:14.340Z,8.30
2019-02-20T08:37:43.489Z,8.30
2019-02-20T08:40:14.557Z,8.40
2019-02-20T08:42:43.768Z,8.50
2019-02-20T08:45:13.097Z,8.50
2019-02-20T08:47:42.231Z,8.50
2019-02-20T08:50:12.106Z,8.70
2019-02-20T08:52:41.243Z,8.70
2019-02-20T08:55:10.393Z,8.70
2019-02-20T08:57:39.514Z,8.90
2019-02-20T09:00:11.225Z,9.00
2019-02-20T09:02:40.341Z,8.90
2019-02-20T09:05:09.558Z,9.00
2019-02-20T09:07:38.677Z,9.10
2019-02-20T09:10:08.546Z,9.20
2019-02-20T09:12:37.653Z,9.30
2019-02-20T09:15:07.573Z,9.30
2019-02-20T09:17:36.722Z,9.40
2019-02-20T09:20:06.893Z,9.70
2019-02-20T09:22:36.066Z,9.80
2019-02-20T09:25:06.219Z,9.80
2019-02-20T09:27:35.341Z,9.70
2019-02-20T09:30:04.957Z,9.60
2019-02-20T09:32:34.105Z,9.60
2019-02-20T09:35:03.254Z,9.60
2019-02-20T09:37:32.368Z,9.70
2019-02-20T09:40:01.494Z,9.70
2019-02-20T09:42:30.615Z,9.80
2019-02-20T09:44:59.930Z,9.80
2019-02-20T09:47:29.059Z,9.80
2019-02-20T09:49:58.509Z,9.80
2019-02-20T09:52:27.653Z,9.70
2019-02-20T09:54:56.793Z,9.70
2019-02-20T09:57:25.957Z,9.70
2019-02-20T09:59:55.113Z,9.80
2019-02-20T10:02:24.322Z,9.80
2019-02-20T10:04:53.494Z,9.60
2019-02-20T10:07:22.724Z,9.50
2019-02-20T10:09:51.877Z,9.60
2019-02-20T10:12:21.017Z,9.70
2019-02-20T10:14:50.142Z,9.80
2019-02-20T10:17:19.269Z,9.90
2019-02-20T10:19:48.520Z,10.20
2019-02-20T10:22:17.660Z,10.30
2019-02-20T10:24:46.851Z,10.40
2019-02-20T10:27:16.212Z,10.50
2019-02-20T10:29:45.362Z,10.40
2019-02-20T10:32:14.507Z,10.60
2019-02-20T10:34:43.677Z,10.70
2019-02-20T10:37:12.797Z,10.80
2019-02-20T10:39:41.949Z,11.00
2019-02-20T10:42:11.086Z,11.10
2019-02-20T10:44:40.245Z,11.20
2019-02-20T10:47:09.421Z,10.90
2019-02-20T10:49:38.554Z,10.70
2019-02-20T10:52:07.698Z,10.50
2019-02-20T10:54:36.827Z,10.40
2019-02-20T10:57:05.954Z,10.10
2019-02-20T10:59:35.129Z,10.00
2019-02-20T11:02:04.447Z,9.90
2019-02-20T11:04:33.634Z,9.80
2019-02-20T11:07:02.909Z,9.80
2019-02-20T11:09:32.098Z,9.80
2019-02-20T11:12:01.219Z,9.80
2019-02-20T11:14:30.565Z,10.00
2019-02-20T11:16:59.794Z,10.10
2019-02-20T11:19:28.949Z,10.10
2019-02-20T11:21:58.069Z,10.20
2019-02-20T11:24:27.218Z,10.30
2019-02-20T11:26:56.405Z,10.30
2019-02-20T11:29:25.578Z,10.50
2019-02-20T11:31:56.467Z,10.60
2019-02-20T11:34:25.661Z,10.60
2019-02-20T11:36:54.858Z,10.50
2019-02-20T11:39:24.048Z,10.50
2019-02-20T11:41:53.207Z,10.50
2019-02-20T11:44:22.457Z,10.50
2019-02-20T11:46:51.577Z,10.60
2019-02-20T11:49:20.733Z,10.50
2019-02-20T11:51:49.953Z,10.40
2019-02-20T11:54:19.194Z,10.40
2019-02-20T11:56:48.321Z,10.40
2019-02-20T11:59:17.605Z,10.40
2019-02-20T12:01:46.787Z,10.40
2019-02-20T12:04:16.021Z,10.50
2019-02-20T12:06:45.149Z,10.50
2019-02-20T12:09:14.424Z,10.50
2019-02-20T12:11:43.589Z,10.70
2019-02-20T12:14:12.717Z,10.80
2019-02-20T12:16:41.886Z,10.90
2019-02-20T12:19:11.127Z,10.80
2019-02-20T12:21:40.251Z,10.80
2019-02-20T12:24:09.382Z,10.70
2019-02-20T12:26:38.549Z,10.60
2019-02-20T12:29:07.693Z,10.50
2019-02-20T12:31:36.822Z,10.40
2019-02-20T12:34:05.924Z,10.20
2019-02-20T12:36:35.089Z,10.10
2019-02-20T12:39:05.247Z,10.10
2019-02-20T12:41:34.366Z,10.00
2019-02-20T12:44:03.513Z,9.90
2019-02-20T12:46:32.635Z,9.90
2019-02-20T12:49:01.814Z,9.90
2019-02-20T12:51:30.945Z,9.80
2019-02-20T12:54:00.078Z,9.80
2019-02-20T12:56:29.221Z,9.70
2019-02-20T12:58:58.333Z,9.70
2019-02-20T13:01:27.438Z,9.70
2019-02-20T13:03:56.641Z,9.70
2019-02-20T13:06:25.902Z,9.70
2019-02-20T13:08:55.014Z,9.60
2019-02-20T13:11:24.129Z,9.60
2019-02-20T13:13:53.351Z,9.60
2019-02-20T13:16:22.457Z,9.70
2019-02-20T13:18:51.602Z,9.80
2019-02-20T13:21:20.814Z,9.80
2019-02-20T13:23:49.978Z,9.80
2019-02-20T13:26:19.116Z,9.90
2019-02-20T13:28:48.239Z,9.90
2019-02-20T13:31:17.392Z,9.90
2019-02-20T13:33:46.581Z,9.80
2019-02-20T13:36:15.814Z,9.80
2019-02-20T13:38:44.941Z,9.80
2019-02-20T13:41:14.057Z,9.80
2019-02-20T13:43:43.178Z,9.80
2019-02-20T13:46:12.412Z,9.90
2019-02-20T13:48:41.553Z,9.90
2019-02-20T13:51:10.693Z,9.80
2019-02-20T13:53:46.271Z,9.80
2019-02-20T13:56:10.805Z,9.90
2019-02-20T13:58:40.096Z,10.00
2019-02-20T14:01:09.397Z,10.20
2019-02-20T14:03:38.598Z,10.30
2019-02-20T14:06:07.897Z,10.30
2019-02-20T14:08:37.101Z,10.30
2019-02-20T14:11:06.630Z,10.30
2019-02-20T14:13:35.809Z,10.30
2019-02-20T14:16:04.932Z,10.30
2019-02-20T14:18:34.164Z,10.30
2019-02-20T14:21:03.386Z,10.20
2019-02-20T14:23:32.497Z,10.10
2019-02-20T14:26:01.649Z,10.00
2019-02-20T14:28:30.909Z,10.00
2019-02-20T14:31:00.051Z,9.90
2019-02-20T14:33:29.225Z,9.80
2019-02-20T14:35:58.353Z,9.80
2019-02-20T14:38:27.607Z,9.80
2019-02-20T14:40:56.795Z,9.80
2019-02-20T14:43:26.324Z,9.80
2019-02-20T14:45:55.541Z,9.80
2019-02-20T14:48:24.763Z,9.70
2019-02-20T14:50:53.985Z,9.60
2019-02-20T14:53:23.245Z,9.60
2019-02-20T14:55:52.357Z,9.60
2019-02-20T14:58:21.921Z,9.60
2019-02-20T15:00:51.086Z,9.50
2019-02-20T15:03:20.194Z,9.50
2019-02-20T15:05:49.418Z,9.50
2019-02-20T15:08:18.618Z,9.50
2019-02-20T15:10:47.798Z,9.50
2019-02-20T15:13:17.038Z,9.50
2019-02-20T15:15:47.445Z,9.50
2019-02-20T15:18:16.846Z,9.50
2019-02-20T15:20:46.018Z,9.40
2019-02-20T15:23:15.197Z,9.50
2019-02-20T15:25:44.337Z,9.40
2019-02-20T15:28:13.573Z,9.40
2019-02-20T15:30:43.077Z,9.30
2019-02-20T15:33:12.203Z,9.30
2019-02-20T15:35:41.401Z,9.30
2019-02-20T15:38:10.626Z,9.30
2019-02-20T15:40:39.769Z,9.20
2019-02-20T15:43:08.957Z,9.20
2019-02-20T15:45:38.451Z,9.10
2019-02-20T15:48:08.061Z,9.10
2019-02-20T15:50:37.268Z,9.10
2019-02-20T15:53:07.047Z,9.10
2019-02-20T15:55:36.406Z,9.10
2019-02-20T15:58:05.614Z,9.00
2019-02-20T16:00:35.226Z,9.00
2019-02-20T16:03:05.146Z,9.00
2019-02-20T16:05:34.474Z,9.00
2019-02-20T16:08:03.770Z,9.10
2019-02-20T16:10:34.781Z,9.10
2019-02-20T16:13:03.950Z,9.00
2019-02-20T16:15:33.158Z,9.00
2019-02-20T16:18:02.310Z,9.00
2019-02-20T16:20:31.564Z,9.00
2019-02-20T16:23:00.760Z,9.00
2019-02-20T16:25:29.903Z,8.90
2019-02-20T16:27:59.205Z,8.90
2019-02-20T16:30:28.406Z,8.90
2019-02-20T16:32:57.952Z,8.90
2019-02-20T16:35:27.165Z,8.90
2019-02-20T16:37:56.318Z,8.90
2019-02-20T16:40:25.550Z,9.00
2019-02-20T16:42:54.653Z,8.90
2019-02-20T16:45:24.440Z,8.90
2019-02-20T16:47:53.949Z,8.90
2019-02-20T16:50:23.133Z,8.90
2019-02-20T16:52:52.350Z,8.90
2019-02-20T16:55:22.664Z,8.90
2019-02-20T16:57:56.565Z,8.80
2019-02-20T17:00:23.281Z,8.90
2019-02-20T17:02:52.876Z,8.80
2019-02-20T17:05:22.091Z,8.80
2019-02-20T17:07:51.195Z,8.80
2019-02-20T17:10:20.372Z,8.80
2019-02-20T17:12:49.485Z,8.80
2019-02-20T17:15:18.698Z,8.80
2019-02-20T17:17:48.358Z,8.80
2019-02-20T17:20:17.957Z,8.80
2019-02-20T17:22:47.325Z,8.80
2019-02-20T17:25:17.158Z,8.80
2019-02-20T17:27:50.401Z,8.80
2019-02-20T17:30:19.845Z,8.70
2019-02-20T17:32:49.513Z,8.70
2019-02-20T17:35:18.737Z,8.60
2019-02-20T17:37:47.975Z,8.60
2019-02-20T17:40:17.202Z,8.70
2019-02-20T17:42:46.408Z,8.70
2019-02-20T17:45:15.652Z,8.70
2019-02-20T17:47:45.175Z,8.70
2019-02-20T17:50:15.273Z,8.70
2019-02-20T17:52:44.484Z,8.70
2019-02-20T17:55:13.730Z,8.70
2019-02-20T17:57:42.977Z,8.70
2019-02-20T18:00:12.938Z,8.70
2019-02-20T18:02:42.045Z,8.70
2019-02-20T18:05:11.379Z,8.60
2019-02-20T18:07:48.780Z,8.60
2019-02-20T18:10:11.533Z,8.50
2019-02-20T18:12:40.670Z,8.50
2019-02-20T18:15:10.199Z,8.50
2019-02-20T18:17:39.321Z,8.50
2019-02-20T18:20:08.819Z,8.60
2019-02-20T18:22:37.958Z,8.50
2019-02-20T18:25:07.225Z,8.60
2019-02-20T18:27:36.368Z,8.60
2019-02-20T18:30:06.139Z,8.60
2019-02-20T18:32:35.249Z,8.60
2019-02-20T18:35:04.881Z,8.60
2019-02-20T18:37:34.014Z,8.60
2019-02-20T18:40:03.372Z,8.60
2019-02-20T18:42:32.565Z,8.60
2019-02-20T18:45:01.683Z,8.60
2019-02-20T18:47:30.852Z,8.50
2019-02-20T18:50:00.002Z,8.50
2019-02-20T18:52:29.204Z,8.50
2019-02-20T18:55:05.541Z,8.50
2019-02-20T18:57:29.230Z,8.50
2019-02-20T18:59:58.365Z,8.50
2019-02-20T19:02:27.505Z,8.50
2019-02-20T19:04:56.672Z,8.50
2019-02-20T19:07:25.895Z,8.50
2019-02-20T19:09:55.113Z,8.50
2019-02-20T19:12:45.713Z,8.50
2019-02-20T19:15:22.397Z,8.60
2019-02-20T19:18:04.429Z,8.60
2019-02-20T19:21:10.727Z,8.60
2019-02-20T19:24:32.077Z,8.50
2019-02-20T19:27:32.403Z,8.60
2019-02-20T19:30:33.536Z,8.60
2019-02-20T19:33:22.559Z,8.60
2019-02-20T19:36:30.028Z,8.60
2019-02-20T19:39:28.841Z,8.60
2019-02-20T19:42:38.139Z,8.60
2019-02-20T19:46:06.564Z,8.60
2019-02-20T19:49:05.241Z,8.60
2019-02-20T19:51:56.179Z,8.50
2019-02-20T19:54:53.599Z,8.60
2019-02-20T19:58:00.393Z,8.60
2019-02-20T20:01:25.889Z,8.50
2019-02-20T20:04:23.089Z,8.50
2019-02-20T20:07:37.915Z,8.50
2019-02-20T20:10:53.469Z,8.50
2019-02-20T20:13:44.609Z,8.50
2019-02-20T20:16:39.457Z,8.50
2019-02-20T20:19:27.426Z,8.40
2019-02-20T20:22:29.266Z,8.40
2019-02-20T20:25:39.437Z,8.40
2019-02-20T20:28:44.561Z,8.40
2019-02-20T20:32:00.774Z,8.40
2019-02-20T20:34:55.234Z,8.50
2019-02-20T20:38:04.934Z,8.40
2019-02-20T20:41:09.154Z,8.40
2019-02-20T20:44:28.217Z,8.40
2019-02-20T20:47:25.079Z,8.40
2019-02-20T20:50:06.266Z,8.40
2019-02-20T20:52:57.621Z,8.40
2019-02-20T20:56:10.433Z,8.40
2019-02-20T20:59:17.256Z,8.40
2019-02-20T21:01:44.137Z,8.40
2019-02-20T21:04:57.437Z,8.40
2019-02-20T21:07:35.263Z,8.40
2019-02-20T21:10:48.591Z,8.40
2019-02-20T21:14:13.344Z,8.40
2019-02-20T21:17:01.764Z,8.40
2019-02-20T21:19:45.674Z,8.40
2019-02-20T21:23:06.870Z,8.40
2019-02-20T21:26:23.838Z,8.40
2019-02-20T21:29:42.929Z,8.40
2019-02-20T21:32:49.901Z,8.40
2019-02-20T21:35:46.231Z,8.30
2019-02-20T21:38:59.482Z,8.30
2019-02-20T21:41:38.998Z,8.30
2019-02-20T21:44:27.168Z,8.20
2019-02-20T21:47:13.351Z,8.30
2019-02-20T21:50:26.211Z,8.20
2019-02-20T21:53:08.366Z,8.20
2019-02-20T21:56:10.893Z,8.20
2019-02-20T21:59:11.262Z,8.20
2019-02-20T22:02:18.652Z,8.20
2019-02-20T22:05:36.959Z,8.20
2019-02-20T22:08:47.294Z,8.20
2019-02-20T22:11:50.385Z,8.20
2019-02-20T22:14:56.928Z,8.20
2019-02-20T22:17:59.361Z,8.10
2019-02-20T22:20:59.801Z,8.10
2019-02-20T22:24:05.141Z,8.10
2019-02-20T22:26:57.506Z,8.10
2019-02-20T22:29:59.373Z,8.10
2019-02-20T22:32:58.281Z,8.10
2019-02-20T22:35:57.538Z,8.10
2019-02-20T22:39:13.153Z,8.10
2019-02-20T22:42:22.314Z,8.10
2019-02-20T22:45:26.989Z,8.10
2019-02-20T22:48:20.841Z,8.10
2019-02-20T22:51:18.384Z,8.10
2019-02-20T22:54:39.802Z,8.10
2019-02-20T22:57:38.910Z,8.10
2019-02-20T23:01:00.033Z,8.10
2019-02-20T23:04:12.244Z,8.10
2019-02-20T23:07:46.945Z,8.10
2019-02-20T23:10:45.453Z,8.10
2019-02-20T23:13:49.172Z,8.10
2019-02-20T23:16:18.328Z,8.10
2019-02-20T23:18:47.515Z,8.10
2019-02-20T23:21:16.634Z,8.00
2019-02-20T23:23:45.767Z,8.00
2019-02-20T23:26:14.993Z,8.10
2019-02-20T23:28:44.142Z,8.10
2019-02-20T23:31:13.325Z,8.10
2019-02-20T23:33:42.442Z,8.10
2019-02-20T23:36:11.638Z,8.10
2019-02-20T23:38:40.801Z,8.00
2019-02-20T23:41:09.914Z,8.00
2019-02-20T23:43:39.028Z,8.00
2019-02-20T23:46:08.149Z,8.00
2019-02-20T23:48:37.277Z,8.00
2019-02-20T23:51:06.570Z,8.10
2019-02-20T23:53:35.802Z,8.00
2019-02-20T23:56:05.076Z,8.00
2019-02-20T23:58:34.186Z,8.00
